Time;durP1;ratioP1;P1;durP2;ratioP2;P2;SDS_P1;SDS_P2;PMS_P1;PMS_P2;Temp;Humidity;BMP_temperature;BMP_pressure;BME280_temperature;BME280_humidity;BME280_pressure;Samples;Min_cycle;Max_cycle;Signal;HPM_P1;HPM_P2
2022/12/24 00:01:03;;;;;;;1.05;0.70;;;20.00;57.40;;;;;;5071730;28;20500;-67
2022/12/24 00:03:29;;;;;;;2.20;0.80;;;20.00;57.50;;;;;;5071958;28;20032;-67
2022/12/24 00:05:54;;;;;;;2.67;0.90;;;19.90;57.40;;;;;;5070831;28;20423;-68
2022/12/24 00:08:20;;;;;;;3.35;0.90;;;19.90;57.40;;;;;;5070964;28;20106;-67
2022/12/24 00:10:49;;;;;;;2.53;0.93;;;19.90;57.40;;;;;;5072048;28;20055;-66
2022/12/24 00:13:15;;;;;;;1.65;0.63;;;19.90;57.40;;;;;;5071366;28;20127;-66
2022/12/24 00:15:40;;;;;;;1.45;0.80;;;19.90;57.40;;;;;;5071582;28;20485;-66
2022/12/24 00:18:06;;;;;;;1.67;0.80;;;19.90;57.40;;;;;;5071943;28;20045;-66
2022/12/24 00:20:32;;;;;;;3.20;1.00;;;19.90;57.50;;;;;;5071584;28;20040;-67
2022/12/24 00:22:57;;;;;;;1.98;0.90;;;19.80;57.40;;;;;;5065834;28;20032;-67
2022/12/24 00:25:23;;;;;;;1.77;0.85;;;19.80;57.40;;;;;;5070407;28;20040;-67
2022/12/24 00:27:48;;;;;;;2.88;0.80;;;19.80;57.40;;;;;;5072052;28;20053;-66
2022/12/24 00:30:14;;;;;;;1.75;0.90;;;19.80;57.40;;;;;;5071046;28;20481;-66
2022/12/24 00:32:39;;;;;;;3.10;0.82;;;19.80;57.40;;;;;;5071826;28;20407;-66
2022/12/24 00:35:06;;;;;;;2.88;0.90;;;19.70;57.30;;;;;;5070175;28;20037;-66
2022/12/24 00:37:31;;;;;;;2.97;0.70;;;19.70;57.30;;;;;;5069922;28;20044;-66
2022/12/24 00:39:57;;;;;;;1.67;0.73;;;19.70;57.30;;;;;;5072214;28;20050;-66
2022/12/24 00:42:22;;;;;;;1.73;0.85;;;19.70;57.40;;;;;;5071330;28;20037;-66
2022/12/24 00:44:48;;;;;;;2.20;0.80;;;19.70;57.40;;;;;;5071053;28;20049;-66
2022/12/24 00:47:13;;;;;;;1.92;0.80;;;19.70;57.40;;;;;;5070155;28;20119;-67
2022/12/24 00:49:39;;;;;;;1.83;0.88;;;19.70;57.40;;;;;;5071369;28;20040;-66
2022/12/24 00:52:04;;;;;;;1.85;0.82;;;19.70;57.40;;;;;;5071004;28;20086;-66
2022/12/24 00:54:30;;;;;;;1.27;1.10;;;19.70;57.40;;;;;;5071800;28;20044;-66
2022/12/24 00:56:55;;;;;;;2.20;0.70;;;19.60;57.30;;;;;;5070397;28;20127;-66
2022/12/24 00:59:21;;;;;;;1.88;0.70;;;19.70;57.40;;;;;;5070938;28;20068;-66
2022/12/24 01:01:47;;;;;;;2.45;0.80;;;19.60;57.30;;;;;;5071807;28;20049;-66
2022/12/24 01:06:56;;;;;;;1.88;0.85;;;19.60;57.40;;;;;;5075660;28;20048;-66
2022/12/24 01:09:22;;;;;;;2.55;0.70;;;19.60;57.40;;;;;;5055103;28;20123;-66
2022/12/24 01:11:47;;;;;;;2.03;0.88;;;19.60;57.40;;;;;;5054370;28;20076;-66
2022/12/24 01:14:13;;;;;;;1.25;0.60;;;19.60;57.30;;;;;;5055280;28;20048;-66
2022/12/24 01:16:38;;;;;;;3.85;1.00;;;19.60;57.40;;;;;;5055273;28;20052;-66
2022/12/24 01:19:04;;;;;;;3.13;0.90;;;19.60;57.40;;;;;;5053982;28;20041;-66
2022/12/24 01:21:29;;;;;;;3.63;0.98;;;19.60;57.40;;;;;;5054806;28;20091;-66
2022/12/24 01:23:55;;;;;;;2.50;0.90;;;19.60;57.40;;;;;;5055373;28;20041;-67
2022/12/24 01:26:20;;;;;;;3.03;0.90;;;19.50;57.30;;;;;;5052371;28;20065;-67
2022/12/24 01:28:46;;;;;;;2.97;1.13;;;19.50;57.40;;;;;;5052227;28;20041;-66
2022/12/24 01:31:17;;;;;;;2.15;0.65;;;19.50;57.30;;;;;;5054891;28;20045;-66
2022/12/24 01:33:43;;;;;;;4.32;1.00;;;19.50;57.30;;;;;;5053935;28;20132;-66
2022/12/24 01:36:09;;;;;;;1.92;0.73;;;19.50;57.40;;;;;;5054889;28;20121;-66
2022/12/24 01:38:34;;;;;;;1.77;0.75;;;19.50;57.30;;;;;;5053419;28;20091;-66
2022/12/24 01:43:44;;;;;;;2.42;0.80;;;19.50;57.40;;;;;;5054941;28;20033;-66
2022/12/24 01:46:16;;;;;;;2.35;0.57;;;19.40;57.30;;;;;;5054517;28;20041;-66
2022/12/24 01:48:44;;;;;;;1.83;0.60;;;19.50;57.40;;;;;;5050615;28;20073;-66
2022/12/24 01:51:32;;;;;;;2.28;0.80;;;19.50;57.30;;;;;;5052714;28;20481;-66
2022/12/24 01:54:07;;;;;;;1.98;0.65;;;19.40;57.30;;;;;;5052830;28;20067;-66
2022/12/24 01:56:32;;;;;;;1.95;0.50;;;19.40;57.30;;;;;;5053136;28;20049;-66
2022/12/24 01:59:05;;;;;;;1.65;0.73;;;19.40;57.30;;;;;;5036529;28;20099;-66
2022/12/24 02:01:31;;;;;;;2.80;1.17;;;19.40;57.30;;;;;;5053620;28;20049;-66
2022/12/24 02:03:56;;;;;;;2.08;0.77;;;19.40;57.30;;;;;;5054320;28;20117;-66
2022/12/24 02:06:22;;;;;;;1.75;0.73;;;19.40;57.30;;;;;;5052646;28;20056;-67
2022/12/24 02:08:47;;;;;;;3.10;0.77;;;19.30;57.30;;;;;;5052260;28;20052;-66
2022/12/24 02:11:15;;;;;;;3.30;1.02;;;19.40;57.30;;;;;;5054070;28;20047;-66
2022/12/24 02:13:47;;;;;;;1.58;0.70;;;19.40;57.40;;;;;;5053973;28;20060;-66
2022/12/24 02:16:37;;;;;;;1.52;0.63;;;19.40;57.30;;;;;;5051206;28;20110;-66
2022/12/24 02:19:17;;;;;;;2.53;0.80;;;19.30;57.30;;;;;;5052806;28;20091;-66
2022/12/24 02:22:14;;;;;;;3.17;0.77;;;19.30;57.20;;;;;;5052153;28;20484;-66
2022/12/24 02:25:17;;;;;;;1.88;0.57;;;19.30;57.20;;;;;;5050507;28;20049;-66
2022/12/24 02:28:00;;;;;;;1.42;0.60;;;19.30;57.20;;;;;;5052680;28;20085;-66
2022/12/24 02:30:39;;;;;;;2.00;0.70;;;19.30;57.20;;;;;;5051760;28;20045;-66
2022/12/24 02:33:22;;;;;;;3.38;0.50;;;19.30;57.20;;;;;;5052711;28;20040;-66
2022/12/24 02:36:12;;;;;;;3.85;1.25;;;19.30;57.20;;;;;;5052060;28;20055;-66
2022/12/24 02:39:00;;;;;;;0.75;0.45;;;19.30;57.20;;;;;;5052401;28;20476;-66
2022/12/24 02:42:04;;;;;;;2.25;0.65;;;19.30;57.30;;;;;;5052305;28;20404;-66
2022/12/24 02:44:14;;;;;;;2.42;0.70;;;19.30;57.30;;;;;;5051181;28;20126;-66
2022/12/24 02:46:40;;;;;;;1.75;0.50;;;19.30;57.30;;;;;;5050070;28;20419;-67
2022/12/24 02:49:06;;;;;;;1.25;0.43;;;19.30;57.30;;;;;;5050873;28;20037;-66
2022/12/24 02:51:31;;;;;;;1.55;0.52;;;19.30;57.30;;;;;;5052373;28;20045;-66
2022/12/24 02:53:58;;;;;;;2.15;0.55;;;19.30;57.30;;;;;;5051984;28;20138;-66
2022/12/24 02:56:34;;;;;;;2.47;0.63;;;19.20;57.30;;;;;;5052066;28;20049;-66
2022/12/24 02:59:08;;;;;;;2.03;0.50;;;19.30;57.30;;;;;;5051733;28;20037;-66
2022/12/24 03:02:05;;;;;;;2.33;0.63;;;19.20;57.30;;;;;;5052963;28;20462;-66
2022/12/24 03:04:44;;;;;;;1.67;0.60;;;19.20;57.30;;;;;;5050853;28;20037;-66
2022/12/24 03:07:17;;;;;;;2.65;0.90;;;19.20;57.20;;;;;;5052801;28;20056;-66
2022/12/24 03:10:01;;;;;;;2.35;0.60;;;19.20;57.30;;;;;;5051550;28;20124;-66
2022/12/24 03:12:31;;;;;;;2.35;0.60;;;19.20;57.20;;;;;;5050702;28;20065;-66
2022/12/24 03:14:57;;;;;;;0.98;0.57;;;19.20;57.30;;;;;;5051941;28;20049;-66
2022/12/24 03:17:22;;;;;;;2.55;0.52;;;19.20;57.30;;;;;;5051433;28;20555;-66
2022/12/24 03:19:48;;;;;;;3.00;0.73;;;19.20;57.30;;;;;;5052074;28;20558;-65
2022/12/24 03:22:14;;;;;;;3.67;0.88;;;19.10;57.30;;;;;;5051333;28;20049;-65
2022/12/24 03:24:39;;;;;;;3.17;0.60;;;19.20;57.30;;;;;;5051833;28;20416;-65
2022/12/24 03:27:05;;;;;;;6.22;0.80;;;19.10;57.20;;;;;;5050997;28;20397;-65
2022/12/24 03:29:31;;;;;;;4.85;0.70;;;19.20;57.30;;;;;;5051484;28;20059;-66
2022/12/24 03:32:01;;;;;;;5.28;0.93;;;19.10;57.20;;;;;;5050522;28;20434;-66
2022/12/24 03:34:26;;;;;;;4.28;0.80;;;19.20;57.20;;;;;;5051092;28;20095;-66
2022/12/24 03:36:52;;;;;;;3.38;1.00;;;19.20;57.20;;;;;;5034764;28;20045;-66
2022/12/24 03:39:17;;;;;;;4.15;0.75;;;19.20;57.30;;;;;;5051764;28;20453;-66
2022/12/24 03:41:43;;;;;;;5.20;1.13;;;19.20;57.20;;;;;;5052419;28;20102;-66
2022/12/24 03:44:08;;;;;;;3.65;0.90;;;19.20;57.20;;;;;;5052341;28;20076;-66
2022/12/24 03:46:34;;;;;;;2.47;1.00;;;19.10;57.10;;;;;;5051541;28;20041;-65
2022/12/24 03:48:59;;;;;;;4.55;0.90;;;19.20;57.20;;;;;;5052506;28;20036;-66
2022/12/24 03:51:26;;;;;;;5.25;1.00;;;19.20;57.20;;;;;;5052017;28;20500;-66
2022/12/24 03:53:52;;;;;;;5.75;1.10;;;19.20;57.20;;;;;;5051797;28;20115;-66
2022/12/24 03:56:17;;;;;;;4.00;0.80;;;19.20;57.10;;;;;;5051708;28;20451;-66
2022/12/24 03:58:43;;;;;;;4.32;0.98;;;19.20;57.10;;;;;;5052588;28;20123;-66
2022/12/24 04:01:09;;;;;;;7.30;1.40;;;19.20;57.10;;;;;;5049693;28;20041;-66
2022/12/24 04:03:34;;;;;;;3.88;0.90;;;19.20;57.10;;;;;;5051958;28;20217;-66
2022/12/24 04:06:07;;;;;;;5.82;1.00;;;19.20;57.10;;;;;;5051023;28;20041;-66
2022/12/24 04:08:33;;;;;;;7.43;1.33;;;19.20;57.10;;;;;;5051050;28;20477;-66
2022/12/24 04:10:59;;;;;;;5.45;1.15;;;19.20;57.00;;;;;;5056983;28;20044;-66
2022/12/24 04:13:24;;;;;;;3.92;1.00;;;19.20;57.00;;;;;;5071653;28;20052;-66
2022/12/24 04:15:58;;;;;;;5.50;1.08;;;19.20;57.00;;;;;;5071487;28;20040;-66
2022/12/24 04:18:23;;;;;;;5.55;1.20;;;19.30;57.00;;;;;;5071950;28;20054;-66
2022/12/24 04:20:49;;;;;;;5.78;1.10;;;19.30;57.00;;;;;;5071748;28;20390;-66
2022/12/24 04:23:14;;;;;;;6.88;1.40;;;19.30;57.00;;;;;;5070790;28;20506;-66
2022/12/24 04:25:40;;;;;;;6.55;1.25;;;19.30;57.70;;;;;;5072251;28;20042;-66
2022/12/24 04:28:05;;;;;;;7.90;1.42;;;19.30;57.00;;;;;;5071502;28;20044;-65
2022/12/24 04:30:31;;;;;;;5.32;1.13;;;19.30;56.90;;;;;;5071600;28;20045;-66
2022/12/24 04:32:56;;;;;;;5.75;1.20;;;19.30;56.90;;;;;;5072187;28;20045;-65
2022/12/24 04:35:22;;;;;;;7.47;1.40;;;19.30;56.80;;;;;;5070753;28;20078;-66
2022/12/24 04:37:48;;;;;;;8.25;1.05;;;19.30;56.90;;;;;;5072295;28;20045;-65
2022/12/24 04:40:13;;;;;;;4.85;1.02;;;19.30;56.80;;;;;;5075799;28;20036;-66
2022/12/24 04:42:39;;;;;;;4.43;0.95;;;19.40;56.80;;;;;;5075144;28;20127;-65
2022/12/24 04:45:05;;;;;;;5.18;1.10;;;19.40;56.90;;;;;;5074552;28;20041;-65
2022/12/24 04:47:30;;;;;;;7.90;1.23;;;19.40;56.90;;;;;;5075417;28;20041;-66
2022/12/24 04:49:56;;;;;;;6.97;1.33;;;19.40;56.90;;;;;;5075313;28;20049;-66
2022/12/24 04:52:21;;;;;;;7.63;1.33;;;19.40;56.90;;;;;;5075548;28;20044;-66
2022/12/24 04:54:47;;;;;;;6.07;1.48;;;19.40;56.80;;;;;;5075612;28;20510;-66
2022/12/24 04:57:12;;;;;;;6.38;1.10;;;19.40;56.80;;;;;;5074402;28;20040;-66
2022/12/24 04:59:38;;;;;;;8.65;1.25;;;19.40;56.80;;;;;;5075648;28;20037;-66
2022/12/24 05:02:03;;;;;;;9.13;1.48;;;19.40;56.80;;;;;;5050206;28;20136;-66
2022/12/24 05:04:29;;;;;;;6.25;1.20;;;19.50;56.80;;;;;;5053380;28;20040;-66
2022/12/24 05:06:55;;;;;;;5.75;1.23;;;19.50;57.50;;;;;;5054830;28;20052;-66
2022/12/24 05:09:20;;;;;;;5.68;1.35;;;19.50;56.80;;;;;;5054728;28;20037;-66
2022/12/24 05:11:46;;;;;;;8.15;1.20;;;19.50;56.80;;;;;;5054554;28;20041;-66
2022/12/24 05:14:11;;;;;;;7.28;1.40;;;19.50;56.80;;;;;;5055151;28;20442;-66
2022/12/24 05:16:37;;;;;;;6.63;1.20;;;19.60;56.80;;;;;;5055187;28;20118;-66
2022/12/24 05:19:03;;;;;;;5.95;1.05;;;19.60;56.90;;;;;;5052916;28;20056;-66
2022/12/24 05:21:28;;;;;;;7.80;1.67;;;19.60;56.80;;;;;;5053504;28;20059;-66
2022/12/24 05:26:47;;;;;;;6.82;1.70;;;19.60;56.80;;;;;;5054243;28;20131;-66
2022/12/24 05:29:13;;;;;;;5.97;1.38;;;19.60;56.80;;;;;;5053126;28;20044;-66
2022/12/24 05:31:39;;;;;;;7.53;1.30;;;19.70;56.80;;;;;;5054129;28;20052;-67
2022/12/24 05:34:05;;;;;;;6.28;1.50;;;19.60;56.80;;;;;;5054688;28;20488;-66
2022/12/24 05:36:31;;;;;;;6.18;1.30;;;19.70;56.70;;;;;;5054744;28;20037;-66
2022/12/24 05:38:56;;;;;;;6.32;1.17;;;19.70;56.70;;;;;;5054365;28;20443;-66
2022/12/24 05:41:22;;;;;;;6.68;1.48;;;19.70;56.70;;;;;;5054712;28;20080;-66
2022/12/24 05:43:47;;;;;;;5.15;1.30;;;19.70;56.70;;;;;;5063000;28;20059;-66
2022/12/24 05:46:14;;;;;;;5.82;1.40;;;19.70;56.70;;;;;;5073745;28;20609;-66
2022/12/24 05:48:40;;;;;;;8.68;1.38;;;19.80;56.80;;;;;;5073432;28;20047;-66
2022/12/24 05:51:07;;;;;;;6.95;1.23;;;19.70;56.70;;;;;;5074098;28;20111;-66
2022/12/24 05:53:33;;;;;;;8.80;1.58;;;19.70;56.70;;;;;;5073803;28;20041;-66
2022/12/24 05:56:06;;;;;;;5.63;1.23;;;19.80;56.80;;;;;;5073229;28;20052;-66
2022/12/24 05:58:31;;;;;;;6.22;1.33;;;19.80;56.80;;;;;;5073982;28;20500;-66
2022/12/24 06:00:57;;;;;;;5.25;1.50;;;19.80;57.00;;;;;;5073484;28;20044;-66
2022/12/24 06:03:22;;;;;;;4.95;1.00;;;19.80;56.80;;;;;;5073808;28;20476;-66
2022/12/24 06:05:48;;;;;;;8.02;1.52;;;19.80;56.80;;;;;;5074334;28;20052;-66
2022/12/24 06:08:13;;;;;;;5.93;1.20;;;19.80;56.80;;;;;;5073222;28;20094;-66
2022/12/24 06:10:39;;;;;;;6.25;1.48;;;19.80;56.80;;;;;;5073039;28;20050;-66
2022/12/24 06:13:04;;;;;;;6.43;1.17;;;19.90;56.80;;;;;;5073853;28;20094;-65
2022/12/24 06:15:30;;;;;;;6.47;1.33;;;19.90;56.80;;;;;;5072817;28;20048;-66
2022/12/24 06:17:55;;;;;;;6.50;1.30;;;19.90;56.80;;;;;;5073940;28;20052;-66
2022/12/24 06:20:21;;;;;;;5.40;1.40;;;19.90;56.80;;;;;;5072537;28;20048;-66
2022/12/24 06:22:47;;;;;;;6.88;1.15;;;19.90;56.80;;;;;;5073504;28;20090;-66
2022/12/24 06:25:12;;;;;;;4.47;1.40;;;19.90;56.80;;;;;;5073548;28;20126;-66
2022/12/24 06:27:38;;;;;;;4.78;1.00;;;19.90;56.80;;;;;;5073003;28;20043;-66
2022/12/24 06:30:04;;;;;;;6.32;1.20;;;19.90;56.80;;;;;;5071580;28;20051;-65
2022/12/24 06:32:29;;;;;;;5.78;1.08;;;19.90;56.80;;;;;;5030232;28;20477;-66
2022/12/24 06:34:55;;;;;;;6.80;1.13;;;19.90;56.80;;;;;;5032760;28;20041;-66
2022/12/24 06:37:20;;;;;;;4.70;1.38;;;19.90;56.80;;;;;;5033183;28;20499;-66
2022/12/24 06:39:46;;;;;;;7.93;1.65;;;19.90;56.80;;;;;;5033728;28;20041;-66
2022/12/24 06:42:15;;;;;;;6.80;1.13;;;19.90;56.70;;;;;;5032855;28;20045;-66
2022/12/24 06:44:40;;;;;;;5.13;1.17;;;19.90;56.80;;;;;;5033595;28;20053;-66
2022/12/24 06:47:06;;;;;;;5.55;1.42;;;20.00;56.80;;;;;;5047322;28;20040;-66
2022/12/24 06:49:31;;;;;;;5.15;1.25;;;19.90;56.70;;;;;;5072477;28;20105;-66
2022/12/24 06:51:57;;;;;;;4.68;1.20;;;19.90;56.70;;;;;;5073695;28;20063;-66
2022/12/24 06:54:22;;;;;;;8.30;1.58;;;19.90;56.70;;;;;;5073166;28;20040;-66
2022/12/24 06:56:48;;;;;;;7.35;1.55;;;19.90;56.80;;;;;;5072402;28;20055;-66
2022/12/24 06:59:13;;;;;;;4.82;1.30;;;20.00;56.80;;;;;;5072933;28;20072;-66
2022/12/24 07:01:39;;;;;;;4.63;1.50;;;20.00;56.90;;;;;;5072392;28;20041;-66
2022/12/24 07:04:05;;;;;;;8.40;1.92;;;20.00;57.50;;;;;;5071052;28;20511;-66
2022/12/24 07:06:31;;;;;;;6.82;1.17;;;20.00;56.80;;;;;;5072669;28;20040;-66
2022/12/24 07:08:56;;;;;;;4.80;1.48;;;20.00;56.80;;;;;;5073198;28;20123;-66
2022/12/24 07:11:25;;;;;;;6.13;1.27;;;20.00;56.80;;;;;;5071792;28;20041;-66
2022/12/24 07:13:51;;;;;;;6.55;1.70;;;20.00;56.80;;;;;;5072680;28;20144;-66
2022/12/24 07:16:16;;;;;;;5.95;1.00;;;20.00;56.80;;;;;;5072129;28;20550;-66
2022/12/24 07:18:42;;;;;;;6.57;1.73;;;20.00;56.80;;;;;;5070789;28;20051;-65
2022/12/24 07:21:07;;;;;;;5.00;1.30;;;20.00;56.80;;;;;;5071450;28;20090;-65
2022/12/24 07:23:33;;;;;;;5.13;1.58;;;20.10;56.80;;;;;;5072576;28;20102;-65
2022/12/24 07:26:00;;;;;;;7.13;1.40;;;20.00;56.80;;;;;;5071970;28;20083;-66
2022/12/24 07:28:26;;;;;;;8.13;1.80;;;20.00;56.80;;;;;;5072584;28;20119;-66
2022/12/24 07:30:51;;;;;;;7.60;1.50;;;20.10;56.90;;;;;;5072266;28;20483;-65
2022/12/24 07:33:17;;;;;;;5.07;1.50;;;20.00;56.80;;;;;;5066932;28;20040;-65
2022/12/24 07:35:42;;;;;;;7.20;1.80;;;20.00;56.80;;;;;;5072772;28;20037;-66
2022/12/24 07:38:08;;;;;;;6.05;1.23;;;20.10;56.80;;;;;;5071911;28;20373;-66
2022/12/24 07:40:34;;;;;;;8.10;1.58;;;20.00;56.90;;;;;;5072792;28;20044;-65
2022/12/24 07:42:59;;;;;;;4.60;1.15;;;20.10;56.80;;;;;;5072363;28;20037;-66
2022/12/24 07:45:25;;;;;;;5.32;1.20;;;20.10;56.90;;;;;;5071112;28;20063;-65
2022/12/24 07:47:50;;;;;;;4.35;1.13;;;20.10;56.80;;;;;;5070594;28;20433;-64
2022/12/24 07:50:16;;;;;;;6.65;1.52;;;20.10;56.80;;;;;;5070797;28;20102;-65
2022/12/24 07:52:41;;;;;;;4.28;0.90;;;20.10;56.80;;;;;;5070769;28;20044;-69
2022/12/24 07:55:07;;;;;;;10.00;1.63;;;20.10;56.80;;;;;;5072412;28;20036;-66
2022/12/24 07:57:33;;;;;;;5.88;1.30;;;20.10;56.90;;;;;;5072078;28;20503;-66
2022/12/24 07:59:59;;;;;;;6.53;1.20;;;20.10;56.80;;;;;;5070457;28;20370;-66
2022/12/24 08:02:24;;;;;;;10.93;1.73;;;20.10;56.80;;;;;;5070849;28;20102;-66
2022/12/24 08:04:50;;;;;;;5.47;1.40;;;20.20;56.80;;;;;;5070820;28;20518;-66
2022/12/24 08:07:16;;;;;;;9.05;1.40;;;20.20;56.70;;;;;;5069769;28;20132;-73
2022/12/24 08:09:43;;;;;;;8.93;1.35;;;20.20;56.70;;;;;;5070730;28;20090;-65
2022/12/24 08:12:08;;;;;;;6.18;1.50;;;20.30;56.70;;;;;;5071826;28;20048;-66
2022/12/24 08:14:34;;;;;;;6.47;1.48;;;20.30;56.70;;;;;;5070966;28;20127;-65
2022/12/24 08:16:59;;;;;;;7.13;1.65;;;20.30;56.60;;;;;;5072079;28;20385;-65
2022/12/24 08:19:25;;;;;;;6.03;1.38;;;20.40;56.70;;;;;;5071970;28;20044;-65
2022/12/24 08:21:50;;;;;;;7.18;1.70;;;20.40;56.80;;;;;;5071647;28;20127;-65
2022/12/24 08:24:16;;;;;;;7.22;1.30;;;20.40;56.80;;;;;;5071977;28;20081;-65
2022/12/24 08:26:41;;;;;;;7.28;1.50;;;20.40;56.80;;;;;;5070645;28;20502;-65
2022/12/24 08:29:07;;;;;;;8.50;1.40;;;20.40;56.80;;;;;;5071172;28;20076;-62
2022/12/24 08:31:35;;;;;;;8.40;1.75;;;20.50;56.80;;;;;;5066888;28;20037;-63
2022/12/24 08:34:05;;;;;;;7.45;1.33;;;20.50;56.90;;;;;;5050268;28;20044;-66
2022/12/24 08:36:30;;;;;;;9.68;1.65;;;20.50;56.90;;;;;;5050589;28;20041;-66
2022/12/24 08:38:56;;;;;;;5.63;1.25;;;20.50;56.90;;;;;;5051617;28;20449;-64
2022/12/24 08:41:22;;;;;;;7.55;1.90;;;20.50;56.90;;;;;;5049130;28;20056;-66
2022/12/24 08:43:47;;;;;;;8.63;1.65;;;20.60;57.10;;;;;;5051448;28;20086;-66
2022/12/24 08:46:13;;;;;;;8.65;2.20;;;20.50;57.00;;;;;;5050279;28;20094;-70
2022/12/24 08:48:38;;;;;;;9.63;1.73;;;20.60;57.10;;;;;;5049161;28;20036;-67
2022/12/24 08:51:08;;;;;;;8.13;1.77;;;20.60;57.30;;;;;;5044715;28;20049;-67
2022/12/24 08:53:34;;;;;;;6.40;1.50;;;20.60;57.40;;;;;;5051347;28;20119;-68
2022/12/24 08:56:03;;;;;;;6.97;1.42;;;20.60;57.50;;;;;;5049477;28;20179;-69
2022/12/24 08:58:29;;;;;;;7.72;1.60;;;20.60;57.50;;;;;;5050223;28;20045;-71
2022/12/24 09:00:55;;;;;;;6.38;1.73;;;20.70;57.60;;;;;;5051654;28;20131;-69
2022/12/24 09:03:20;;;;;;;11.63;1.83;;;20.70;57.70;;;;;;5049208;28;20045;-70
2022/12/24 09:05:46;;;;;;;6.65;1.55;;;20.70;57.70;;;;;;5050235;28;20076;-67
2022/12/24 09:08:12;;;;;;;9.70;1.95;;;20.70;57.70;;;;;;5051424;28;20128;-66
2022/12/24 09:10:38;;;;;;;6.47;1.55;;;20.70;57.70;;;;;;5050590;28;20158;-70
2022/12/24 09:13:03;;;;;;;8.15;2.00;;;20.70;57.70;;;;;;5050899;28;20075;-68
2022/12/24 09:15:29;;;;;;;5.30;1.58;;;20.70;57.60;;;;;;5051034;28;20053;-69
2022/12/24 09:17:54;;;;;;;11.48;2.40;;;20.70;57.50;;;;;;5049433;28;20049;-66
2022/12/24 09:20:20;;;;;;;11.52;1.92;;;20.70;57.50;;;;;;5049786;28;20043;-65
2022/12/24 09:22:45;;;;;;;4.68;1.40;;;20.70;57.60;;;;;;5050614;28;20123;-64
2022/12/24 09:25:11;;;;;;;5.05;1.58;;;20.70;57.70;;;;;;5048997;28;20040;-65
2022/12/24 09:27:37;;;;;;;6.28;1.90;;;20.70;57.80;;;;;;5054809;28;20167;-65
2022/12/24 09:30:03;;;;;;;8.95;2.03;;;20.70;57.90;;;;;;5054808;28;20041;-65
2022/12/24 09:32:29;;;;;;;8.20;1.90;;;20.70;57.90;;;;;;5053766;28;20044;-64
2022/12/24 09:34:54;;;;;;;9.00;1.80;;;20.70;57.90;;;;;;5054893;28;20053;-66
2022/12/24 09:37:20;;;;;;;6.97;1.85;;;20.70;57.90;;;;;;5054462;28;20045;-65
2022/12/24 09:39:46;;;;;;;6.22;2.00;;;20.70;57.90;;;;;;5052858;28;20131;-65
2022/12/24 09:42:40;;;;;;;8.77;1.98;;;20.80;57.90;;;;;;5053794;28;20057;-64
2022/12/24 09:45:19;;;;;;;9.98;2.47;;;20.80;58.00;;;;;;5036357;28;20052;-65
2022/12/24 09:47:48;;;;;;;;;;;20.80;58.00;;;;;;5053161;28;20485;-64
2022/12/24 09:50:35;;;;;;;8.93;1.75;;;20.70;57.90;;;;;;5052922;28;19959;-64
2022/12/24 09:53:03;;;;;;;5.63;1.52;;;20.80;58.00;;;;;;5048516;28;20509;-66
2022/12/24 09:55:35;;;;;;;7.68;1.75;;;20.70;58.00;;;;;;5052749;28;20045;-65
2022/12/24 09:58:02;;;;;;;9.07;1.90;;;20.80;58.10;;;;;;5062343;28;20047;-66
2022/12/24 10:00:29;;;;;;;7.85;1.90;;;20.80;58.00;;;;;;5071744;28;20036;-66
2022/12/24 10:02:55;;;;;;;6.00;1.70;;;20.80;58.10;;;;;;5074364;28;20406;-66
2022/12/24 10:05:35;;;;;;;6.25;1.95;;;20.80;58.00;;;;;;5073685;28;20127;-67
2022/12/24 10:08:35;;;;;;;8.32;2.10;;;20.80;57.80;;;;;;5072548;28;20083;-66
2022/12/24 10:11:23;;;;;;;9.15;1.77;;;20.80;58.60;;;;;;5062921;28;20112;-66
2022/12/24 10:14:07;;;;;;;8.02;1.92;;;20.80;58.00;;;;;;5049134;28;20083;-65
2022/12/24 10:16:48;;;;;;;8.30;1.92;;;20.70;58.00;;;;;;5051489;28;20080;-66
2022/12/24 10:19:20;;;;;;;6.15;1.50;;;20.70;58.00;;;;;;5042103;28;20112;-66
2022/12/24 10:21:58;;;;;;;10.45;2.45;;;20.80;58.00;;;;;;5051719;28;20041;-68
2022/12/24 10:24:30;;;;;;;7.20;1.80;;;20.70;58.00;;;;;;5053344;28;20078;-67
2022/12/24 10:27:05;;;;;;;7.53;2.35;;;20.70;58.00;;;;;;5053257;28;20562;-67
2022/12/24 10:29:33;;;;;;;6.53;1.60;;;20.70;58.00;;;;;;5054051;28;20094;-66
2022/12/24 10:31:58;;;;;;;7.68;1.73;;;20.70;58.70;;;;;;5052513;28;20051;-66
2022/12/24 10:34:27;;;;;;;8.07;1.60;;;20.70;58.00;;;;;;5052552;28;20056;-67
2022/12/24 10:36:53;;;;;;;7.93;1.95;;;20.70;58.00;;;;;;5035672;28;20053;-67
2022/12/24 10:39:20;;;;;;;7.38;1.58;;;20.70;58.00;;;;;;5053449;28;20156;-72
2022/12/24 10:41:47;;;;;;;7.75;1.70;;;20.70;57.90;;;;;;5051758;28;20053;-67
2022/12/24 10:44:18;;;;;;;10.82;1.50;;;20.70;57.90;;;;;;5052047;28;20045;-66
2022/12/24 10:46:43;;;;;;;6.78;1.80;;;20.70;58.00;;;;;;5052006;28;20041;-64
2022/12/24 10:49:24;;;;;;;7.10;1.67;;;20.70;58.20;;;;;;5034568;28;20123;-67
2022/12/24 10:51:56;;;;;;;8.48;1.92;;;20.60;58.10;;;;;;5051719;28;20086;-68
2022/12/24 10:54:26;;;;;;;8.18;1.83;;;20.70;58.10;;;;;;5052615;28;20379;-68
2022/12/24 10:56:57;;;;;;;6.65;1.83;;;20.70;58.20;;;;;;5052616;28;20091;-67
2022/12/24 10:59:33;;;;;;;10.15;2.00;;;20.60;58.20;;;;;;5035233;28;20091;-68
2022/12/24 11:01:59;;;;;;;6.32;1.45;;;20.60;58.20;;;;;;5051342;28;20094;-67
2022/12/24 11:04:26;;;;;;;5.93;1.40;;;20.60;58.20;;;;;;5047497;28;20056;-68
2022/12/24 11:07:03;;;;;;;6.83;1.83;;;20.60;58.20;;;;;;5035297;28;20041;-65
2022/12/24 11:09:38;;;;;;;8.13;1.40;;;20.60;58.20;;;;;;5051612;28;20049;-67
2022/12/24 11:12:04;;;;;;;6.50;1.42;;;20.60;58.40;;;;;;5052790;28;20041;-69
2022/12/24 11:14:33;;;;;;;7.07;1.58;;;20.60;58.30;;;;;;5051169;28;20175;-66
2022/12/24 11:16:59;;;;;;;5.35;1.33;;;20.60;58.30;;;;;;5059501;28;20036;-68
2022/12/24 11:19:31;;;;;;;8.13;1.90;;;20.60;58.30;;;;;;5071161;28;20105;-68
2022/12/24 11:22:04;;;;;;;7.38;1.45;;;20.60;58.30;;;;;;5071566;28;20448;-69
2022/12/24 11:24:34;;;;;;;9.38;1.63;;;20.60;58.20;;;;;;5070867;28;20484;-69
2022/12/24 11:27:28;;;;;;;6.95;1.45;;;20.50;58.20;;;;;;5071522;28;20041;-68
2022/12/24 11:30:30;;;;;;;8.23;1.95;;;20.60;58.50;;;;;;5072866;28;20045;-72
2022/12/24 11:32:59;;;;;;;11.32;1.73;;;20.60;58.60;;;;;;5055178;28;20139;-67
2022/12/24 11:35:25;;;;;;;6.80;1.52;;;20.60;58.60;;;;;;5072258;28;20048;-68
2022/12/24 11:38:00;;;;;;;5.47;1.67;;;20.60;58.70;;;;;;5070424;28;20045;-68
2022/12/24 11:40:34;;;;;;;6.50;1.38;;;20.60;58.70;;;;;;5070875;28;20045;-67
2022/12/24 11:43:00;;;;;;;9.63;1.60;;;20.50;58.70;;;;;;5055319;28;20067;-67
2022/12/24 11:45:27;;;;;;;6.57;1.75;;;20.60;58.70;;;;;;5071284;28;20105;-67
2022/12/24 11:47:53;;;;;;;6.90;1.77;;;20.50;58.70;;;;;;5070497;28;20036;-66
2022/12/24 11:50:30;;;;;;;5.88;1.52;;;20.50;59.40;;;;;;5070923;28;20183;-66
2022/12/24 11:53:01;;;;;;;6.43;1.70;;;20.50;58.80;;;;;;5071618;28;20047;-67
2022/12/24 11:55:36;;;;;;;6.53;1.80;;;20.50;58.90;;;;;;5071674;28;20055;-66
2022/12/24 11:58:27;;;;;;;7.70;2.00;;;20.50;58.80;;;;;;5070289;28;20048;-66
2022/12/24 12:01:11;;;;;;;6.10;1.80;;;20.50;58.80;;;;;;5065095;28;20076;-67
2022/12/24 12:03:46;;;;;;;6.88;1.63;;;20.50;58.70;;;;;;5052296;28;20044;-67
2022/12/24 12:06:26;;;;;;;7.32;1.70;;;20.50;58.70;;;;;;5038923;28;20045;-67
2022/12/24 12:09:01;;;;;;;6.93;1.80;;;20.50;58.70;;;;;;5060247;28;20041;-67
2022/12/24 12:11:27;;;;;;;7.70;1.65;;;20.50;58.70;;;;;;5050338;28;20119;-67
2022/12/24 12:13:53;;;;;;;7.38;1.75;;;20.50;58.70;;;;;;5051564;28;20135;-67
2022/12/24 12:16:28;;;;;;;10.43;2.28;;;20.50;58.80;;;;;;5070180;28;20076;-67
2022/12/24 12:18:58;;;;;;;6.72;1.75;;;20.50;59.40;;;;;;5071027;28;20044;-67
2022/12/24 12:21:34;;;;;;;10.43;2.08;;;20.50;58.70;;;;;;5056967;28;20047;-65
2022/12/24 12:24:05;;;;;;;8.43;2.78;;;20.50;58.60;;;;;;5047944;28;20049;-69
2022/12/24 12:26:32;;;;;;;11.85;2.42;;;20.50;58.60;;;;;;5049414;28;20041;-65
2022/12/24 12:29:16;;;;;;;8.48;2.25;;;20.50;58.50;;;;;;5049687;28;20033;-71
2022/12/24 12:31:43;;;;;;;10.88;1.92;;;20.50;58.50;;;;;;5047942;28;20480;-66
2022/12/24 12:34:24;;;;;;;10.13;1.85;;;20.50;58.50;;;;;;5048803;28;20055;-67
2022/12/24 12:36:52;;;;;;;8.30;2.42;;;20.50;58.50;;;;;;5032361;28;20045;-68
2022/12/24 12:39:17;;;;;;;8.60;2.22;;;20.50;58.40;;;;;;5046454;28;20055;-66
2022/12/24 12:42:04;;;;;;;9.55;2.15;;;20.50;58.40;;;;;;5041886;28;20037;-67
2022/12/24 12:44:45;;;;;;;9.73;2.20;;;20.50;58.40;;;;;;5036965;28;20052;-67
2022/12/24 12:47:21;;;;;;;10.73;2.22;;;20.50;58.40;;;;;;5055980;28;20076;-67
2022/12/24 12:50:11;;;;;;;8.45;2.38;;;20.50;58.40;;;;;;5050635;28;20044;-67
2022/12/24 12:52:42;;;;;;;8.63;2.15;;;20.50;58.20;;;;;;5050419;28;20052;-67
2022/12/24 12:55:21;;;;;;;9.68;2.00;;;20.50;58.20;;;;;;5050861;28;20041;-67
2022/12/24 12:57:47;;;;;;;7.65;2.17;;;20.50;58.10;;;;;;5051392;28;20401;-67
2022/12/24 13:00:15;;;;;;;11.38;2.22;;;20.50;58.00;;;;;;5034282;28;20033;-67
2022/12/24 13:02:59;;;;;;;;;;;20.50;57.90;;;;;;5037307;28;20049;-67
2022/12/24 13:05:50;;;;;;;8.85;2.05;;;20.50;57.70;;;;;;5055049;28;20368;-67